sensor_id;sensor_type;location;lat;lon;timestamp;P1;durP1;ratioP1;P2;durP2;ratioP2
32327;SDS011;18806;51.558;5.100;2022-07-01T00:02:13;16.17;;;13.73;;
32327;SDS011;18806;51.558;5.100;2022-07-01T00:04:47;15.18;;;12.93;;
32327;SDS011;18806;51.558;5.100;2022-07-01T00:07:14;15.70;;;13.30;;
32327;SDS011;18806;51.558;5.100;2022-07-01T00:09:45;16.02;;;12.98;;
32327;SDS011;18806;51.558;5.100;2022-07-01T00:12:12;13.73;;;12.27;;
32327;SDS011;18806;51.558;5.100;2022-07-01T00:14:40;14.20;;;12.70;;
32327;SDS011;18806;51.558;5.100;2022-07-01T00:17:08;14.27;;;12.70;;
32327;SDS011;18806;51.558;5.100;2022-07-01T00:19:40;15.35;;;12.88;;
32327;SDS011;18806;51.558;5.100;2022-07-01T00:22:07;15.02;;;13.35;;
32327;SDS011;18806;51.558;5.100;2022-07-01T00:24:34;14.27;;;12.80;;
32327;SDS011;18806;51.558;5.100;2022-07-01T00:27:02;14.73;;;12.65;;
32327;SDS011;18806;51.558;5.100;2022-07-01T00:29:29;14.40;;;12.55;;
32327;SDS011;18806;51.558;5.100;2022-07-01T00:31:56;15.65;;;12.70;;
32327;SDS011;18806;51.558;5.100;2022-07-01T00:34:23;14.23;;;12.73;;
32327;SDS011;18806;51.558;5.100;2022-07-01T00:36:50;15.90;;;13.13;;
32327;SDS011;18806;51.558;5.100;2022-07-01T00:39:18;14.18;;;12.65;;
32327;SDS011;18806;51.558;5.100;2022-07-01T00:41:47;15.00;;;12.93;;
32327;SDS011;18806;51.558;5.100;2022-07-01T00:44:21;14.77;;;13.18;;
32327;SDS011;18806;51.558;5.100;2022-07-01T00:46:49;16.67;;;13.93;;
32327;SDS011;18806;51.558;5.100;2022-07-01T00:49:17;16.23;;;14.13;;
32327;SDS011;18806;51.558;5.100;2022-07-01T00:51:45;16.00;;;14.20;;
32327;SDS011;18806;51.558;5.100;2022-07-01T00:54:13;16.60;;;14.77;;
32327;SDS011;18806;51.558;5.100;2022-07-01T00:56:41;16.90;;;15.10;;
32327;SDS011;18806;51.558;5.100;2022-07-01T00:59:09;18.08;;;15.02;;
32327;SDS011;18806;51.558;5.100;2022-07-01T01:01:39;19.10;;;15.67;;
32327;SDS011;18806;51.558;5.100;2022-07-01T01:04:06;18.37;;;15.57;;
32327;SDS011;18806;51.558;5.100;2022-07-01T01:06:33;17.17;;;15.33;;
32327;SDS011;18806;51.558;5.100;2022-07-01T01:09:00;18.25;;;15.23;;
32327;SDS011;18806;51.558;5.100;2022-07-01T01:11:29;17.65;;;14.63;;
32327;SDS011;18806;51.558;5.100;2022-07-01T01:13:59;18.33;;;15.57;;
32327;SDS011;18806;51.558;5.100;2022-07-01T01:16:26;18.52;;;15.52;;
32327;SDS011;18806;51.558;5.100;2022-07-01T01:18:56;18.13;;;15.40;;
32327;SDS011;18806;51.558;5.100;2022-07-01T01:21:24;19.80;;;16.02;;
32327;SDS011;18806;51.558;5.100;2022-07-01T01:23:51;19.60;;;15.80;;
32327;SDS011;18806;51.558;5.100;2022-07-01T01:26:19;18.50;;;16.30;;
32327;SDS011;18806;51.558;5.100;2022-07-01T01:28:47;20.90;;;17.47;;
32327;SDS011;18806;51.558;5.100;2022-07-01T01:31:15;22.20;;;18.85;;
32327;SDS011;18806;51.558;5.100;2022-07-01T01:33:42;24.42;;;20.10;;
32327;SDS011;18806;51.558;5.100;2022-07-01T01:36:16;24.55;;;20.55;;
32327;SDS011;18806;51.558;5.100;2022-07-01T01:38:45;26.93;;;22.27;;
32327;SDS011;18806;51.558;5.100;2022-07-01T01:41:15;26.58;;;22.55;;
32327;SDS011;18806;51.558;5.100;2022-07-01T01:43:42;28.20;;;22.63;;
32327;SDS011;18806;51.558;5.100;2022-07-01T01:46:12;30.88;;;24.58;;
32327;SDS011;18806;51.558;5.100;2022-07-01T01:48:39;28.87;;;24.03;;
32327;SDS011;18806;51.558;5.100;2022-07-01T01:51:07;31.13;;;25.05;;
32327;SDS011;18806;51.558;5.100;2022-07-01T01:53:34;31.95;;;25.65;;
32327;SDS011;18806;51.558;5.100;2022-07-01T01:56:01;32.78;;;25.80;;
32327;SDS011;18806;51.558;5.100;2022-07-01T01:58:28;31.98;;;26.17;;
32327;SDS011;18806;51.558;5.100;2022-07-01T02:00:55;31.10;;;26.42;;
32327;SDS011;18806;51.558;5.100;2022-07-01T02:03:22;30.67;;;25.48;;
32327;SDS011;18806;51.558;5.100;2022-07-01T02:05:50;33.43;;;27.40;;
32327;SDS011;18806;51.558;5.100;2022-07-01T02:08:17;33.75;;;27.83;;
32327;SDS011;18806;51.558;5.100;2022-07-01T02:10:44;36.35;;;28.23;;
32327;SDS011;18806;51.558;5.100;2022-07-01T02:13:11;35.75;;;27.98;;
32327;SDS011;18806;51.558;5.100;2022-07-01T02:15:38;35.58;;;29.23;;
32327;SDS011;18806;51.558;5.100;2022-07-01T02:18:06;35.30;;;29.23;;
32327;SDS011;18806;51.558;5.100;2022-07-01T02:20:33;34.42;;;28.65;;
32327;SDS011;18806;51.558;5.100;2022-07-01T02:23:01;38.60;;;28.92;;
32327;SDS011;18806;51.558;5.100;2022-07-01T02:25:31;37.05;;;29.13;;
32327;SDS011;18806;51.558;5.100;2022-07-01T02:27:58;40.38;;;30.60;;
32327;SDS011;18806;51.558;5.100;2022-07-01T02:30:25;41.22;;;30.00;;
32327;SDS011;18806;51.558;5.100;2022-07-01T02:32:53;41.55;;;30.60;;
32327;SDS011;18806;51.558;5.100;2022-07-01T02:35:20;42.58;;;31.05;;
32327;SDS011;18806;51.558;5.100;2022-07-01T02:37:47;43.03;;;30.85;;
32327;SDS011;18806;51.558;5.100;2022-07-01T02:40:14;43.33;;;31.25;;
32327;SDS011;18806;51.558;5.100;2022-07-01T02:42:41;45.28;;;32.50;;
32327;SDS011;18806;51.558;5.100;2022-07-01T02:45:11;46.73;;;32.57;;
32327;SDS011;18806;51.558;5.100;2022-07-01T02:47:39;46.85;;;33.50;;
32327;SDS011;18806;51.558;5.100;2022-07-01T02:50:07;45.20;;;32.70;;
32327;SDS011;18806;51.558;5.100;2022-07-01T02:52:35;46.25;;;33.20;;
32327;SDS011;18806;51.558;5.100;2022-07-01T02:55:03;46.75;;;33.63;;
32327;SDS011;18806;51.558;5.100;2022-07-01T02:57:30;49.03;;;34.72;;
32327;SDS011;18806;51.558;5.100;2022-07-01T02:59:58;47.80;;;34.55;;
32327;SDS011;18806;51.558;5.100;2022-07-01T03:02:36;47.65;;;35.08;;
32327;SDS011;18806;51.558;5.100;2022-07-01T03:05:03;46.10;;;34.05;;
32327;SDS011;18806;51.558;5.100;2022-07-01T03:07:31;46.63;;;32.72;;
32327;SDS011;18806;51.558;5.100;2022-07-01T03:10:03;46.38;;;33.65;;
32327;SDS011;18806;51.558;5.100;2022-07-01T03:12:30;45.55;;;33.30;;
32327;SDS011;18806;51.558;5.100;2022-07-01T03:15:15;46.05;;;33.38;;
32327;SDS011;18806;51.558;5.100;2022-07-01T03:17:43;47.50;;;33.95;;
32327;SDS011;18806;51.558;5.100;2022-07-01T03:20:14;43.90;;;32.50;;
32327;SDS011;18806;51.558;5.100;2022-07-01T03:22:43;46.93;;;33.47;;
32327;SDS011;18806;51.558;5.100;2022-07-01T03:25:13;44.50;;;34.00;;
32327;SDS011;18806;51.558;5.100;2022-07-01T03:27:40;44.60;;;34.15;;
32327;SDS011;18806;51.558;5.100;2022-07-01T03:30:11;45.25;;;34.42;;
32327;SDS011;18806;51.558;5.100;2022-07-01T03:32:40;46.30;;;35.05;;
32327;SDS011;18806;51.558;5.100;2022-07-01T03:35:07;46.10;;;35.22;;
32327;SDS011;18806;51.558;5.100;2022-07-01T03:37:53;48.97;;;36.50;;
32327;SDS011;18806;51.558;5.100;2022-07-01T03:40:21;50.90;;;36.92;;
32327;SDS011;18806;51.558;5.100;2022-07-01T03:42:50;48.80;;;36.80;;
32327;SDS011;18806;51.558;5.100;2022-07-01T03:45:17;52.33;;;38.85;;
32327;SDS011;18806;51.558;5.100;2022-07-01T03:47:48;56.38;;;38.83;;
32327;SDS011;18806;51.558;5.100;2022-07-01T03:50:16;52.67;;;37.88;;
32327;SDS011;18806;51.558;5.100;2022-07-01T03:52:43;51.45;;;37.67;;
32327;SDS011;18806;51.558;5.100;2022-07-01T03:55:11;53.57;;;36.83;;
32327;SDS011;18806;51.558;5.100;2022-07-01T03:57:40;51.80;;;37.63;;
32327;SDS011;18806;51.558;5.100;2022-07-01T04:00:08;54.92;;;38.85;;
32327;SDS011;18806;51.558;5.100;2022-07-01T04:02:35;54.22;;;38.00;;
32327;SDS011;18806;51.558;5.100;2022-07-01T04:05:02;53.05;;;37.45;;
32327;SDS011;18806;51.558;5.100;2022-07-01T04:07:29;53.85;;;37.55;;
32327;SDS011;18806;51.558;5.100;2022-07-01T04:10:00;51.15;;;36.58;;
32327;SDS011;18806;51.558;5.100;2022-07-01T04:12:27;52.15;;;37.03;;
32327;SDS011;18806;51.558;5.100;2022-07-01T04:14:54;51.40;;;37.08;;
32327;SDS011;18806;51.558;5.100;2022-07-01T04:17:24;50.03;;;36.08;;
32327;SDS011;18806;51.558;5.100;2022-07-01T04:19:52;51.13;;;37.13;;
32327;SDS011;18806;51.558;5.100;2022-07-01T04:22:19;49.70;;;36.57;;
32327;SDS011;18806;51.558;5.100;2022-07-01T04:25:07;49.87;;;36.33;;
32327;SDS011;18806;51.558;5.100;2022-07-01T04:27:35;50.63;;;37.80;;
32327;SDS011;18806;51.558;5.100;2022-07-01T04:30:02;52.20;;;37.13;;
32327;SDS011;18806;51.558;5.100;2022-07-01T04:32:29;50.13;;;36.17;;
32327;SDS011;18806;51.558;5.100;2022-07-01T04:35:04;50.60;;;36.53;;
32327;SDS011;18806;51.558;5.100;2022-07-01T04:37:34;49.92;;;35.88;;
32327;SDS011;18806;51.558;5.100;2022-07-01T04:40:01;47.60;;;35.50;;
32327;SDS011;18806;51.558;5.100;2022-07-01T04:42:28;49.97;;;35.67;;
32327;SDS011;18806;51.558;5.100;2022-07-01T04:44:55;44.45;;;34.15;;
32327;SDS011;18806;51.558;5.100;2022-07-01T04:47:24;45.45;;;33.53;;
32327;SDS011;18806;51.558;5.100;2022-07-01T04:49:51;45.60;;;34.42;;
32327;SDS011;18806;51.558;5.100;2022-07-01T04:52:18;45.30;;;33.73;;
32327;SDS011;18806;51.558;5.100;2022-07-01T04:54:46;43.65;;;32.92;;
32327;SDS011;18806;51.558;5.100;2022-07-01T04:57:13;40.53;;;31.67;;
32327;SDS011;18806;51.558;5.100;2022-07-01T04:59:44;43.67;;;31.98;;
32327;SDS011;18806;51.558;5.100;2022-07-01T05:02:11;40.65;;;31.45;;
32327;SDS011;18806;51.558;5.100;2022-07-01T05:04:42;40.25;;;30.77;;
32327;SDS011;18806;51.558;5.100;2022-07-01T05:07:09;39.95;;;30.15;;
32327;SDS011;18806;51.558;5.100;2022-07-01T05:09:57;36.17;;;28.73;;
32327;SDS011;18806;51.558;5.100;2022-07-01T05:12:27;34.38;;;27.77;;
32327;SDS011;18806;51.558;5.100;2022-07-01T05:14:54;34.53;;;26.83;;
32327;SDS011;18806;51.558;5.100;2022-07-01T05:17:21;34.17;;;27.08;;
32327;SDS011;18806;51.558;5.100;2022-07-01T05:20:10;34.17;;;26.92;;
32327;SDS011;18806;51.558;5.100;2022-07-01T05:22:56;34.17;;;26.95;;
32327;SDS011;18806;51.558;5.100;2022-07-01T05:25:24;32.97;;;26.15;;
32327;SDS011;18806;51.558;5.100;2022-07-01T05:27:53;33.03;;;26.33;;
32327;SDS011;18806;51.558;5.100;2022-07-01T05:30:23;34.90;;;26.13;;
32327;SDS011;18806;51.558;5.100;2022-07-01T05:32:50;34.90;;;26.37;;
32327;SDS011;18806;51.558;5.100;2022-07-01T05:35:17;33.40;;;24.83;;
32327;SDS011;18806;51.558;5.100;2022-07-01T05:37:44;32.17;;;24.67;;
32327;SDS011;18806;51.558;5.100;2022-07-01T05:40:11;31.60;;;24.63;;
32327;SDS011;18806;51.558;5.100;2022-07-01T05:42:39;31.15;;;22.92;;
32327;SDS011;18806;51.558;5.100;2022-07-01T05:45:06;30.87;;;22.40;;
32327;SDS011;18806;51.558;5.100;2022-07-01T05:47:33;29.23;;;21.33;;
32327;SDS011;18806;51.558;5.100;2022-07-01T05:50:00;27.67;;;20.38;;
32327;SDS011;18806;51.558;5.100;2022-07-01T05:52:27;26.48;;;19.52;;
32327;SDS011;18806;51.558;5.100;2022-07-01T05:54:55;23.13;;;18.00;;
32327;SDS011;18806;51.558;5.100;2022-07-01T05:57:22;24.87;;;18.33;;
32327;SDS011;18806;51.558;5.100;2022-07-01T05:59:49;21.75;;;16.67;;
32327;SDS011;18806;51.558;5.100;2022-07-01T06:02:16;21.10;;;16.73;;
32327;SDS011;18806;51.558;5.100;2022-07-01T06:04:43;21.85;;;16.10;;
32327;SDS011;18806;51.558;5.100;2022-07-01T06:07:10;22.45;;;16.70;;
32327;SDS011;18806;51.558;5.100;2022-07-01T06:09:37;22.75;;;16.50;;
32327;SDS011;18806;51.558;5.100;2022-07-01T06:12:09;24.02;;;17.17;;
32327;SDS011;18806;51.558;5.100;2022-07-01T06:14:36;22.30;;;16.65;;
32327;SDS011;18806;51.558;5.100;2022-07-01T06:17:05;22.83;;;17.50;;
32327;SDS011;18806;51.558;5.100;2022-07-01T06:19:36;22.80;;;15.35;;
32327;SDS011;18806;51.558;5.100;2022-07-01T06:22:05;20.23;;;16.55;;
32327;SDS011;18806;51.558;5.100;2022-07-01T06:24:32;23.23;;;16.70;;
32327;SDS011;18806;51.558;5.100;2022-07-01T06:26:59;18.77;;;15.00;;
32327;SDS011;18806;51.558;5.100;2022-07-01T06:29:26;22.02;;;14.93;;
32327;SDS011;18806;51.558;5.100;2022-07-01T06:31:57;19.75;;;13.02;;
32327;SDS011;18806;51.558;5.100;2022-07-01T06:34:24;18.77;;;14.07;;
32327;SDS011;18806;51.558;5.100;2022-07-01T06:36:54;17.27;;;12.90;;
32327;SDS011;18806;51.558;5.100;2022-07-01T06:39:23;15.67;;;11.97;;
32327;SDS011;18806;51.558;5.100;2022-07-01T06:41:50;14.52;;;11.48;;
32327;SDS011;18806;51.558;5.100;2022-07-01T06:44:20;15.50;;;10.25;;
32327;SDS011;18806;51.558;5.100;2022-07-01T06:46:47;14.80;;;9.27;;
32327;SDS011;18806;51.558;5.100;2022-07-01T06:49:15;13.73;;;9.30;;
32327;SDS011;18806;51.558;5.100;2022-07-01T06:51:42;11.73;;;8.63;;
32327;SDS011;18806;51.558;5.100;2022-07-01T06:54:12;12.75;;;9.00;;
32327;SDS011;18806;51.558;5.100;2022-07-01T06:56:43;15.18;;;9.60;;
32327;SDS011;18806;51.558;5.100;2022-07-01T06:59:10;13.93;;;8.77;;
32327;SDS011;18806;51.558;5.100;2022-07-01T07:01:38;13.23;;;8.70;;
32327;SDS011;18806;51.558;5.100;2022-07-01T07:04:05;12.55;;;8.50;;
32327;SDS011;18806;51.558;5.100;2022-07-01T07:06:32;14.75;;;8.57;;
32327;SDS011;18806;51.558;5.100;2022-07-01T07:09:02;13.43;;;8.23;;
32327;SDS011;18806;51.558;5.100;2022-07-01T07:11:32;11.15;;;7.57;;
32327;SDS011;18806;51.558;5.100;2022-07-01T07:13:59;11.13;;;7.07;;
32327;SDS011;18806;51.558;5.100;2022-07-01T07:16:26;11.95;;;7.28;;
32327;SDS011;18806;51.558;5.100;2022-07-01T07:18:54;11.15;;;7.10;;
32327;SDS011;18806;51.558;5.100;2022-07-01T07:21:21;9.95;;;6.60;;
32327;SDS011;18806;51.558;5.100;2022-07-01T07:23:48;10.70;;;6.53;;
32327;SDS011;18806;51.558;5.100;2022-07-01T07:26:15;10.82;;;6.40;;
32327;SDS011;18806;51.558;5.100;2022-07-01T07:28:43;11.02;;;6.05;;
32327;SDS011;18806;51.558;5.100;2022-07-01T07:31:10;8.15;;;5.75;;
32327;SDS011;18806;51.558;5.100;2022-07-01T07:33:37;10.50;;;5.50;;
32327;SDS011;18806;51.558;5.100;2022-07-01T07:36:04;9.20;;;5.53;;
32327;SDS011;18806;51.558;5.100;2022-07-01T07:38:31;9.07;;;4.90;;
32327;SDS011;18806;51.558;5.100;2022-07-01T07:40:59;8.18;;;5.03;;
32327;SDS011;18806;51.558;5.100;2022-07-01T07:43:27;8.27;;;5.40;;
32327;SDS011;18806;51.558;5.100;2022-07-01T07:45:55;7.75;;;4.72;;
32327;SDS011;18806;51.558;5.100;2022-07-01T07:48:22;8.63;;;4.67;;
32327;SDS011;18806;51.558;5.100;2022-07-01T07:50:53;8.30;;;4.57;;
32327;SDS011;18806;51.558;5.100;2022-07-01T07:53:21;8.65;;;4.50;;
32327;SDS011;18806;51.558;5.100;2022-07-01T07:55:48;8.45;;;4.10;;
32327;SDS011;18806;51.558;5.100;2022-07-01T07:58:16;7.90;;;4.35;;
32327;SDS011;18806;51.558;5.100;2022-07-01T08:00:46;7.30;;;3.83;;
32327;SDS011;18806;51.558;5.100;2022-07-01T08:03:15;7.50;;;3.80;;
32327;SDS011;18806;51.558;5.100;2022-07-01T08:05:46;7.65;;;3.80;;
32327;SDS011;18806;51.558;5.100;2022-07-01T08:08:16;8.07;;;3.80;;
32327;SDS011;18806;51.558;5.100;2022-07-01T08:10:48;7.70;;;3.70;;
32327;SDS011;18806;51.558;5.100;2022-07-01T08:13:15;8.75;;;4.03;;
32327;SDS011;18806;51.558;5.100;2022-07-01T08:15:42;7.82;;;4.05;;
32327;SDS011;18806;51.558;5.100;2022-07-01T08:18:09;7.15;;;3.90;;
32327;SDS011;18806;51.558;5.100;2022-07-01T08:20:37;8.43;;;3.85;;
32327;SDS011;18806;51.558;5.100;2022-07-01T08:23:04;7.50;;;3.60;;
32327;SDS011;18806;51.558;5.100;2022-07-01T08:25:31;8.57;;;4.13;;
32327;SDS011;18806;51.558;5.100;2022-07-01T08:28:01;7.47;;;3.72;;
32327;SDS011;18806;51.558;5.100;2022-07-01T08:30:28;8.65;;;4.03;;
32327;SDS011;18806;51.558;5.100;2022-07-01T08:32:55;6.45;;;4.30;;
32327;SDS011;18806;51.558;5.100;2022-07-01T08:35:22;8.93;;;4.30;;
32327;SDS011;18806;51.558;5.100;2022-07-01T08:37:51;8.45;;;3.75;;
32327;SDS011;18806;51.558;5.100;2022-07-01T08:40:18;6.78;;;3.67;;
32327;SDS011;18806;51.558;5.100;2022-07-01T08:42:45;9.55;;;3.28;;
32327;SDS011;18806;51.558;5.100;2022-07-01T08:45:12;7.72;;;3.40;;
32327;SDS011;18806;51.558;5.100;2022-07-01T08:47:51;8.02;;;3.25;;
32327;SDS011;18806;51.558;5.100;2022-07-01T08:50:19;9.15;;;2.92;;
32327;SDS011;18806;51.558;5.100;2022-07-01T08:52:49;6.35;;;3.08;;
32327;SDS011;18806;51.558;5.100;2022-07-01T08:55:19;6.22;;;3.00;;
32327;SDS011;18806;51.558;5.100;2022-07-01T08:57:51;9.07;;;2.88;;
32327;SDS011;18806;51.558;5.100;2022-07-01T09:00:18;7.95;;;3.20;;
32327;SDS011;18806;51.558;5.100;2022-07-01T09:02:50;8.75;;;3.30;;
32327;SDS011;18806;51.558;5.100;2022-07-01T09:05:18;6.82;;;2.50;;
32327;SDS011;18806;51.558;5.100;2022-07-01T09:07:45;4.30;;;2.08;;
32327;SDS011;18806;51.558;5.100;2022-07-01T09:10:17;6.07;;;1.90;;
32327;SDS011;18806;51.558;5.100;2022-07-01T09:12:47;7.50;;;2.20;;
32327;SDS011;18806;51.558;5.100;2022-07-01T09:15:22;7.13;;;2.50;;
32327;SDS011;18806;51.558;5.100;2022-07-01T09:18:12;6.20;;;2.15;;
32327;SDS011;18806;51.558;5.100;2022-07-01T09:20:43;6.30;;;2.00;;
32327;SDS011;18806;51.558;5.100;2022-07-01T09:23:11;7.40;;;1.80;;
32327;SDS011;18806;51.558;5.100;2022-07-01T09:25:42;6.47;;;2.15;;
32327;SDS011;18806;51.558;5.100;2022-07-01T09:28:21;6.53;;;2.28;;
32327;SDS011;18806;51.558;5.100;2022-07-01T09:30:57;5.45;;;1.67;;
32327;SDS011;18806;51.558;5.100;2022-07-01T09:34:05;5.25;;;1.80;;
32327;SDS011;18806;51.558;5.100;2022-07-01T09:36:56;5.55;;;1.88;;
32327;SDS011;18806;51.558;5.100;2022-07-01T09:39:29;6.93;;;1.90;;
32327;SDS011;18806;51.558;5.100;2022-07-01T09:42:06;5.32;;;1.75;;
32327;SDS011;18806;51.558;5.100;2022-07-01T09:44:50;5.18;;;1.27;;
32327;SDS011;18806;51.558;5.100;2022-07-01T09:47:17;3.92;;;1.40;;
32327;SDS011;18806;51.558;5.100;2022-07-01T09:49:49;4.65;;;1.17;;
32327;SDS011;18806;51.558;5.100;2022-07-01T09:52:22;4.93;;;1.67;;
32327;SDS011;18806;51.558;5.100;2022-07-01T09:55:02;4.88;;;1.70;;
32327;SDS011;18806;51.558;5.100;2022-07-01T10:00:19;4.35;;;1.42;;
32327;SDS011;18806;51.558;5.100;2022-07-01T10:02:47;4.85;;;1.40;;
32327;SDS011;18806;51.558;5.100;2022-07-01T10:05:15;3.43;;;1.43;;
32327;SDS011;18806;51.558;5.100;2022-07-01T10:13:02;6.43;;;1.80;;
32327;SDS011;18806;51.558;5.100;2022-07-01T10:15:32;5.72;;;1.50;;
32327;SDS011;18806;51.558;5.100;2022-07-01T10:18:00;5.57;;;1.58;;
32327;SDS011;18806;51.558;5.100;2022-07-01T10:20:28;5.50;;;1.50;;
32327;SDS011;18806;51.558;5.100;2022-07-01T10:23:05;4.82;;;1.70;;
32327;SDS011;18806;51.558;5.100;2022-07-01T10:25:41;5.82;;;1.60;;
32327;SDS011;18806;51.558;5.100;2022-07-01T10:28:22;4.20;;;1.30;;
32327;SDS011;18806;51.558;5.100;2022-07-01T10:30:55;4.07;;;1.50;;
32327;SDS011;18806;51.558;5.100;2022-07-01T10:33:27;5.23;;;1.47;;
32327;SDS011;18806;51.558;5.100;2022-07-01T10:35:54;5.57;;;1.33;;
32327;SDS011;18806;51.558;5.100;2022-07-01T10:38:21;3.90;;;1.30;;
32327;SDS011;18806;51.558;5.100;2022-07-01T10:40:48;6.05;;;1.35;;
32327;SDS011;18806;51.558;5.100;2022-07-01T10:43:16;4.87;;;1.23;;
32327;SDS011;18806;51.558;5.100;2022-07-01T10:45:54;3.87;;;1.13;;
32327;SDS011;18806;51.558;5.100;2022-07-01T10:48:22;5.07;;;1.38;;
32327;SDS011;18806;51.558;5.100;2022-07-01T10:50:50;5.00;;;1.30;;
32327;SDS011;18806;51.558;5.100;2022-07-01T10:53:17;6.25;;;1.55;;
32327;SDS011;18806;51.558;5.100;2022-07-01T10:55:52;5.00;;;1.40;;
32327;SDS011;18806;51.558;5.100;2022-07-01T10:58:37;4.90;;;1.50;;
32327;SDS011;18806;51.558;5.100;2022-07-01T11:01:09;5.95;;;1.40;;
32327;SDS011;18806;51.558;5.100;2022-07-01T11:03:39;4.95;;;1.45;;
32327;SDS011;18806;51.558;5.100;2022-07-01T11:06:09;4.25;;;1.20;;
32327;SDS011;18806;51.558;5.100;2022-07-01T11:08:48;5.80;;;1.48;;
32327;SDS011;18806;51.558;5.100;2022-07-01T11:11:17;4.45;;;1.40;;
32327;SDS011;18806;51.558;5.100;2022-07-01T11:14:09;5.40;;;1.30;;
32327;SDS011;18806;51.558;5.100;2022-07-01T11:16:36;4.40;;;1.20;;
32327;SDS011;18806;51.558;5.100;2022-07-01T11:19:05;4.18;;;1.20;;
32327;SDS011;18806;51.558;5.100;2022-07-01T11:21:32;3.75;;;1.20;;
32327;SDS011;18806;51.558;5.100;2022-07-01T11:23:59;5.00;;;1.10;;
32327;SDS011;18806;51.558;5.100;2022-07-01T11:26:26;3.40;;;1.20;;
32327;SDS011;18806;51.558;5.100;2022-07-01T11:28:56;5.35;;;1.38;;
32327;SDS011;18806;51.558;5.100;2022-07-01T11:31:27;5.30;;;1.30;;
32327;SDS011;18806;51.558;5.100;2022-07-01T11:33:56;5.05;;;1.30;;
32327;SDS011;18806;51.558;5.100;2022-07-01T11:36:23;4.82;;;1.65;;
32327;SDS011;18806;51.558;5.100;2022-07-01T11:39:13;6.38;;;1.50;;
32327;SDS011;18806;51.558;5.100;2022-07-01T11:46:56;3.58;;;1.20;;
32327;SDS011;18806;51.558;5.100;2022-07-01T11:49:24;4.53;;;1.10;;
32327;SDS011;18806;51.558;5.100;2022-07-01T11:51:58;4.13;;;1.10;;
32327;SDS011;18806;51.558;5.100;2022-07-01T11:54:27;4.53;;;1.07;;
32327;SDS011;18806;51.558;5.100;2022-07-01T11:56:54;6.95;;;1.40;;
32327;SDS011;18806;51.558;5.100;2022-07-01T11:59:21;2.95;;;1.00;;
32327;SDS011;18806;51.558;5.100;2022-07-01T12:01:52;4.57;;;1.20;;
32327;SDS011;18806;51.558;5.100;2022-07-01T12:04:20;5.50;;;1.42;;
32327;SDS011;18806;51.558;5.100;2022-07-01T12:06:47;5.32;;;1.20;;
32327;SDS011;18806;51.558;5.100;2022-07-01T12:09:18;5.88;;;1.23;;
32327;SDS011;18806;51.558;5.100;2022-07-01T12:11:47;4.22;;;1.30;;
32327;SDS011;18806;51.558;5.100;2022-07-01T12:14:24;5.32;;;1.15;;
32327;SDS011;18806;51.558;5.100;2022-07-01T12:16:52;4.43;;;1.40;;
32327;SDS011;18806;51.558;5.100;2022-07-01T12:19:23;5.82;;;1.40;;
32327;SDS011;18806;51.558;5.100;2022-07-01T12:21:53;3.92;;;1.30;;
32327;SDS011;18806;51.558;5.100;2022-07-01T12:24:21;5.53;;;1.27;;
32327;SDS011;18806;51.558;5.100;2022-07-01T12:26:50;5.78;;;1.30;;
32327;SDS011;18806;51.558;5.100;2022-07-01T12:29:18;5.25;;;1.20;;
32327;SDS011;18806;51.558;5.100;2022-07-01T12:32:01;6.70;;;1.38;;
32327;SDS011;18806;51.558;5.100;2022-07-01T12:34:42;5.13;;;1.27;;
32327;SDS011;18806;51.558;5.100;2022-07-01T12:39:46;4.35;;;1.25;;
32327;SDS011;18806;51.558;5.100;2022-07-01T12:42:33;3.95;;;1.30;;
32327;SDS011;18806;51.558;5.100;2022-07-01T12:45:01;5.68;;;1.15;;
32327;SDS011;18806;51.558;5.100;2022-07-01T12:47:30;4.70;;;1.23;;
32327;SDS011;18806;51.558;5.100;2022-07-01T12:50:10;3.70;;;1.05;;
32327;SDS011;18806;51.558;5.100;2022-07-01T12:55:31;3.90;;;0.90;;
32327;SDS011;18806;51.558;5.100;2022-07-01T12:57:59;4.50;;;0.95;;
32327;SDS011;18806;51.558;5.100;2022-07-01T13:00:29;3.10;;;0.80;;
32327;SDS011;18806;51.558;5.100;2022-07-01T13:03:01;4.43;;;0.85;;
32327;SDS011;18806;51.558;5.100;2022-07-01T13:05:38;2.78;;;0.68;;
32327;SDS011;18806;51.558;5.100;2022-07-01T13:08:05;5.17;;;0.87;;
32327;SDS011;18806;51.558;5.100;2022-07-01T13:10:33;3.50;;;0.88;;
32327;SDS011;18806;51.558;5.100;2022-07-01T13:13:00;3.50;;;0.60;;
32327;SDS011;18806;51.558;5.100;2022-07-01T13:15:28;5.07;;;0.80;;
32327;SDS011;18806;51.558;5.100;2022-07-01T13:17:56;2.53;;;0.82;;
32327;SDS011;18806;51.558;5.100;2022-07-01T13:20:23;1.98;;;0.77;;
32327;SDS011;18806;51.558;5.100;2022-07-01T13:22:50;3.03;;;0.80;;
32327;SDS011;18806;51.558;5.100;2022-07-01T13:25:18;3.08;;;0.73;;
32327;SDS011;18806;51.558;5.100;2022-07-01T13:27:45;2.55;;;0.80;;
32327;SDS011;18806;51.558;5.100;2022-07-01T13:30:12;3.45;;;0.80;;
32327;SDS011;18806;51.558;5.100;2022-07-01T13:32:40;4.17;;;1.10;;
32327;SDS011;18806;51.558;5.100;2022-07-01T13:35:08;4.75;;;1.00;;
32327;SDS011;18806;51.558;5.100;2022-07-01T13:37:35;4.25;;;1.10;;
32327;SDS011;18806;51.558;5.100;2022-07-01T13:40:05;3.97;;;0.90;;
32327;SDS011;18806;51.558;5.100;2022-07-01T13:42:33;3.97;;;0.90;;
32327;SDS011;18806;51.558;5.100;2022-07-01T13:45:00;3.13;;;1.00;;
32327;SDS011;18806;51.558;5.100;2022-07-01T13:47:28;5.43;;;1.15;;
32327;SDS011;18806;51.558;5.100;2022-07-01T13:49:58;4.60;;;1.13;;
32327;SDS011;18806;51.558;5.100;2022-07-01T13:52:25;3.38;;;1.10;;
32327;SDS011;18806;51.558;5.100;2022-07-01T13:54:56;4.43;;;1.00;;
32327;SDS011;18806;51.558;5.100;2022-07-01T13:57:26;3.72;;;0.95;;
32327;SDS011;18806;51.558;5.100;2022-07-01T13:59:53;5.25;;;1.10;;
32327;SDS011;18806;51.558;5.100;2022-07-01T14:02:25;3.83;;;1.20;;
32327;SDS011;18806;51.558;5.100;2022-07-01T14:04:52;3.85;;;1.15;;
32327;SDS011;18806;51.558;5.100;2022-07-01T14:07:19;3.63;;;1.20;;
32327;SDS011;18806;51.558;5.100;2022-07-01T14:09:46;3.72;;;1.15;;
32327;SDS011;18806;51.558;5.100;2022-07-01T14:12:14;4.80;;;1.30;;
32327;SDS011;18806;51.558;5.100;2022-07-01T14:14:53;7.07;;;1.25;;
32327;SDS011;18806;51.558;5.100;2022-07-01T14:17:20;5.47;;;1.40;;
32327;SDS011;18806;51.558;5.100;2022-07-01T14:19:47;4.63;;;1.33;;
32327;SDS011;18806;51.558;5.100;2022-07-01T14:22:15;4.70;;;1.25;;
32327;SDS011;18806;51.558;5.100;2022-07-01T14:24:45;4.80;;;1.13;;
32327;SDS011;18806;51.558;5.100;2022-07-01T14:27:13;4.20;;;1.20;;
32327;SDS011;18806;51.558;5.100;2022-07-01T14:29:40;5.40;;;1.23;;
32327;SDS011;18806;51.558;5.100;2022-07-01T14:32:07;4.75;;;1.25;;
32327;SDS011;18806;51.558;5.100;2022-07-01T14:34:35;4.38;;;1.30;;
32327;SDS011;18806;51.558;5.100;2022-07-01T14:37:03;4.27;;;1.20;;
32327;SDS011;18806;51.558;5.100;2022-07-01T14:39:30;5.35;;;1.35;;
32327;SDS011;18806;51.558;5.100;2022-07-01T14:41:58;3.63;;;1.27;;
32327;SDS011;18806;51.558;5.100;2022-07-01T14:44:25;4.70;;;1.40;;
32327;SDS011;18806;51.558;5.100;2022-07-01T14:46:52;5.90;;;1.57;;
32327;SDS011;18806;51.558;5.100;2022-07-01T14:49:20;4.07;;;1.15;;
32327;SDS011;18806;51.558;5.100;2022-07-01T14:51:47;6.97;;;1.48;;
32327;SDS011;18806;51.558;5.100;2022-07-01T14:54:14;5.13;;;1.20;;
32327;SDS011;18806;51.558;5.100;2022-07-01T14:56:44;5.38;;;1.50;;
32327;SDS011;18806;51.558;5.100;2022-07-01T14:59:11;4.75;;;1.20;;
32327;SDS011;18806;51.558;5.100;2022-07-01T15:01:39;3.75;;;1.25;;
32327;SDS011;18806;51.558;5.100;2022-07-01T15:04:10;4.45;;;1.30;;
32327;SDS011;18806;51.558;5.100;2022-07-01T15:06:44;4.90;;;1.48;;
32327;SDS011;18806;51.558;5.100;2022-07-01T15:09:11;5.15;;;1.55;;